sensor_id;sensor_type;location;lat;lon;timestamp;temperature;humidity
51733;DHT22;39139;53.144;6.244;2024-03-23T00:54:38;4.60;99.90
51733;DHT22;39139;53.144;6.244;2024-03-23T00:57:04;4.60;99.90
51733;DHT22;39139;53.144;6.244;2024-03-23T00:59:29;4.60;99.90
51733;DHT22;39139;53.144;6.244;2024-03-23T01:01:56;4.50;99.90
51733;DHT22;39139;53.144;6.244;2024-03-23T01:04:22;4.50;99.90
51733;DHT22;39139;53.144;6.244;2024-03-23T01:06:48;4.50;99.90
51733;DHT22;39139;53.144;6.244;2024-03-23T01:09:13;4.40;99.90
51733;DHT22;39139;53.144;6.244;2024-03-23T01:11:39;4.70;99.90
51733;DHT22;39139;53.144;6.244;2024-03-23T01:14:05;4.40;99.90
51733;DHT22;39139;53.144;6.244;2024-03-23T01:16:31;4.40;99.90
51733;DHT22;39139;53.144;6.244;2024-03-23T01:18:57;4.40;99.90
51733;DHT22;39139;53.144;6.244;2024-03-23T01:21:23;4.40;99.90
51733;DHT22;39139;53.144;6.244;2024-03-23T01:23:48;4.30;99.90
51733;DHT22;39139;53.144;6.244;2024-03-23T01:26:14;4.30;99.90
51733;DHT22;39139;53.144;6.244;2024-03-23T01:28:40;4.30;99.90
51733;DHT22;39139;53.144;6.244;2024-03-23T01:31:06;4.30;99.90
51733;DHT22;39139;53.144;6.244;2024-03-23T01:33:31;4.30;99.90
51733;DHT22;39139;53.144;6.244;2024-03-23T01:35:57;4.30;99.90
51733;DHT22;39139;53.144;6.244;2024-03-23T01:38:22;4.60;99.90
51733;DHT22;39139;53.144;6.244;2024-03-23T01:40:48;4.20;99.90
51733;DHT22;39139;53.144;6.244;2024-03-23T01:43:14;4.20;99.90
51733;DHT22;39139;53.144;6.244;2024-03-23T01:45:39;4.20;99.90
51733;DHT22;39139;53.144;6.244;2024-03-23T01:48:05;4.10;99.90
51733;DHT22;39139;53.144;6.244;2024-03-23T01:50:32;4.20;99.90
51733;DHT22;39139;53.144;6.244;2024-03-23T01:53:00;4.10;99.90
51733;DHT22;39139;53.144;6.244;2024-03-23T01:55:27;4.10;99.90
51733;DHT22;39139;53.144;6.244;2024-03-23T01:57:56;4.10;99.90
51733;DHT22;39139;53.144;6.244;2024-03-23T02:00:22;4.10;99.90
51733;DHT22;39139;53.144;6.244;2024-03-23T02:02:48;3.40;99.90
51733;DHT22;39139;53.144;6.244;2024-03-23T02:05:14;4.20;99.90
51733;DHT22;39139;53.144;6.244;2024-03-23T02:07:40;4.20;99.90
51733;DHT22;39139;53.144;6.244;2024-03-23T02:10:10;4.20;99.90
51733;DHT22;39139;53.144;6.244;2024-03-23T02:12:36;4.20;99.90
51733;DHT22;39139;53.144;6.244;2024-03-23T02:15:02;4.20;99.90
51733;DHT22;39139;53.144;6.244;2024-03-23T02:17:33;4.10;99.90
51733;DHT22;39139;53.144;6.244;2024-03-23T02:19:59;4.20;99.90
51733;DHT22;39139;53.144;6.244;2024-03-23T02:22:25;4.10;99.90
51733;DHT22;39139;53.144;6.244;2024-03-23T02:24:59;4.10;99.90
51733;DHT22;39139;53.144;6.244;2024-03-23T02:27:24;4.10;99.90
51733;DHT22;39139;53.144;6.244;2024-03-23T02:29:50;4.00;99.90
51733;DHT22;39139;53.144;6.244;2024-03-23T02:32:16;4.10;99.90
51733;DHT22;39139;53.144;6.244;2024-03-23T02:34:41;4.00;99.90
51733;DHT22;39139;53.144;6.244;2024-03-23T02:37:13;4.00;99.90
51733;DHT22;39139;53.144;6.244;2024-03-23T02:39:38;4.00;99.90
51733;DHT22;39139;53.144;6.244;2024-03-23T02:42:05;4.00;99.90
51733;DHT22;39139;53.144;6.244;2024-03-23T02:44:31;4.00;99.90
51733;DHT22;39139;53.144;6.244;2024-03-23T02:46:57;4.00;99.90
51733;DHT22;39139;53.144;6.244;2024-03-23T02:49:22;3.90;99.90
51733;DHT22;39139;53.144;6.244;2024-03-23T02:51:48;3.90;99.90
51733;DHT22;39139;53.144;6.244;2024-03-23T02:54:14;3.90;99.90
51733;DHT22;39139;53.144;6.244;2024-03-23T02:56:40;3.90;99.90
51733;DHT22;39139;53.144;6.244;2024-03-23T02:59:05;3.80;99.90
51733;DHT22;39139;53.144;6.244;2024-03-23T03:01:31;3.80;99.90
51733;DHT22;39139;53.144;6.244;2024-03-23T03:03:57;3.80;99.90
51733;DHT22;39139;53.144;6.244;2024-03-23T03:06:26;3.70;99.90
51733;DHT22;39139;53.144;6.244;2024-03-23T03:08:52;3.70;99.90
51733;DHT22;39139;53.144;6.244;2024-03-23T03:11:18;3.70;99.90
51733;DHT22;39139;53.144;6.244;2024-03-23T03:13:43;3.60;99.90
51733;DHT22;39139;53.144;6.244;2024-03-23T03:16:10;3.50;99.90
51733;DHT22;39139;53.144;6.244;2024-03-23T03:18:36;3.60;99.90
51733;DHT22;39139;53.144;6.244;2024-03-23T03:21:01;3.60;99.90
51733;DHT22;39139;53.144;6.244;2024-03-23T03:23:27;3.60;99.90
51733;DHT22;39139;53.144;6.244;2024-03-23T03:25:53;3.60;99.90
51733;DHT22;39139;53.144;6.244;2024-03-23T03:28:19;3.60;99.90
51733;DHT22;39139;53.144;6.244;2024-03-23T03:30:45;3.60;99.90
51733;DHT22;39139;53.144;6.244;2024-03-23T03:33:11;3.50;99.90
51733;DHT22;39139;53.144;6.244;2024-03-23T03:35:36;3.50;99.90
51733;DHT22;39139;53.144;6.244;2024-03-23T03:38:04;3.50;99.90
51733;DHT22;39139;53.144;6.244;2024-03-23T03:40:29;3.50;99.90
51733;DHT22;39139;53.144;6.244;2024-03-23T03:42:55;3.50;99.90
51733;DHT22;39139;53.144;6.244;2024-03-23T03:45:21;3.50;99.90
51733;DHT22;39139;53.144;6.244;2024-03-23T03:47:47;3.50;99.90
51733;DHT22;39139;53.144;6.244;2024-03-23T03:50:12;3.50;99.90
51733;DHT22;39139;53.144;6.244;2024-03-23T03:52:38;3.50;99.90
51733;DHT22;39139;53.144;6.244;2024-03-23T03:55:12;3.50;99.90
51733;DHT22;39139;53.144;6.244;2024-03-23T03:57:38;3.50;99.90
51733;DHT22;39139;53.144;6.244;2024-03-23T04:00:04;3.50;99.90
51733;DHT22;39139;53.144;6.244;2024-03-23T04:02:30;3.50;99.90
51733;DHT22;39139;53.144;6.244;2024-03-23T04:04:55;3.50;99.90
51733;DHT22;39139;53.144;6.244;2024-03-23T04:07:21;3.50;99.90
51733;DHT22;39139;53.144;6.244;2024-03-23T04:09:48;5.30;99.90
51733;DHT22;39139;53.144;6.244;2024-03-23T04:12:15;3.50;99.90
51733;DHT22;39139;53.144;6.244;2024-03-23T04:14:40;3.50;99.90
51733;DHT22;39139;53.144;6.244;2024-03-23T04:17:07;3.60;99.90
51733;DHT22;39139;53.144;6.244;2024-03-23T04:19:32;3.50;99.90
51733;DHT22;39139;53.144;6.244;2024-03-23T04:21:58;3.60;99.90
51733;DHT22;39139;53.144;6.244;2024-03-23T04:24:23;3.60;99.90
51733;DHT22;39139;53.144;6.244;2024-03-23T04:26:51;3.60;99.90
51733;DHT22;39139;53.144;6.244;2024-03-23T04:29:17;3.70;99.90
51733;DHT22;39139;53.144;6.244;2024-03-23T04:31:42;3.70;99.90
51733;DHT22;39139;53.144;6.244;2024-03-23T04:34:08;3.60;99.90
51733;DHT22;39139;53.144;6.244;2024-03-23T04:36:33;3.60;99.90
51733;DHT22;39139;53.144;6.244;2024-03-23T04:38:59;3.60;99.90
51733;DHT22;39139;53.144;6.244;2024-03-23T04:41:25;4.10;99.90
51733;DHT22;39139;53.144;6.244;2024-03-23T04:43:51;3.60;99.90
51733;DHT22;39139;53.144;6.244;2024-03-23T04:46:17;3.70;99.90
51733;DHT22;39139;53.144;6.244;2024-03-23T04:48:43;3.60;99.90
51733;DHT22;39139;53.144;6.244;2024-03-23T04:51:10;3.60;99.90
51733;DHT22;39139;53.144;6.244;2024-03-23T04:53:38;3.60;99.90
51733;DHT22;39139;53.144;6.244;2024-03-23T04:56:03;3.60;99.90
51733;DHT22;39139;53.144;6.244;2024-03-23T04:58:29;3.60;99.90
51733;DHT22;39139;53.144;6.244;2024-03-23T05:00:56;3.60;99.90
51733;DHT22;39139;53.144;6.244;2024-03-23T05:03:22;3.50;99.90
51733;DHT22;39139;53.144;6.244;2024-03-23T05:05:48;3.60;99.90
51733;DHT22;39139;53.144;6.244;2024-03-23T05:08:15;3.60;99.90
51733;DHT22;39139;53.144;6.244;2024-03-23T05:10:42;3.60;99.90
51733;DHT22;39139;53.144;6.244;2024-03-23T05:13:07;3.60;99.90
51733;DHT22;39139;53.144;6.244;2024-03-23T05:15:33;3.60;99.90
51733;DHT22;39139;53.144;6.244;2024-03-23T05:17:58;3.70;99.90
51733;DHT22;39139;53.144;6.244;2024-03-23T05:20:24;3.60;99.90
51733;DHT22;39139;53.144;6.244;2024-03-23T05:22:50;3.60;99.90
51733;DHT22;39139;53.144;6.244;2024-03-23T05:25:16;3.50;99.90
51733;DHT22;39139;53.144;6.244;2024-03-23T05:27:42;3.50;99.90
51733;DHT22;39139;53.144;6.244;2024-03-23T05:30:07;3.50;99.90
51733;DHT22;39139;53.144;6.244;2024-03-23T05:32:34;3.40;99.90
51733;DHT22;39139;53.144;6.244;2024-03-23T05:35:00;3.40;99.90
51733;DHT22;39139;53.144;6.244;2024-03-23T05:37:26;3.50;99.90
51733;DHT22;39139;53.144;6.244;2024-03-23T05:39:52;3.50;99.90
51733;DHT22;39139;53.144;6.244;2024-03-23T05:42:18;3.60;99.90
51733;DHT22;39139;53.144;6.244;2024-03-23T05:44:47;3.70;99.90
51733;DHT22;39139;53.144;6.244;2024-03-23T05:47:13;3.90;99.90
51733;DHT22;39139;53.144;6.244;2024-03-23T05:49:40;4.20;99.90
51733;DHT22;39139;53.144;6.244;2024-03-23T05:52:12;4.20;99.90
51733;DHT22;39139;53.144;6.244;2024-03-23T05:54:37;5.60;99.90
51733;DHT22;39139;53.144;6.244;2024-03-23T05:57:03;4.10;99.90
51733;DHT22;39139;53.144;6.244;2024-03-23T05:59:29;4.10;99.90
51733;DHT22;39139;53.144;6.244;2024-03-23T06:01:55;4.10;99.90
51733;DHT22;39139;53.144;6.244;2024-03-23T06:04:20;4.10;99.90
51733;DHT22;39139;53.144;6.244;2024-03-23T06:06:49;4.10;99.90
51733;DHT22;39139;53.144;6.244;2024-03-23T06:09:14;4.00;99.90
51733;DHT22;39139;53.144;6.244;2024-03-23T06:11:40;4.00;99.90
51733;DHT22;39139;53.144;6.244;2024-03-23T06:14:06;4.00;99.90
51733;DHT22;39139;53.144;6.244;2024-03-23T06:16:31;4.00;99.90
51733;DHT22;39139;53.144;6.244;2024-03-23T06:18:57;4.00;99.90
51733;DHT22;39139;53.144;6.244;2024-03-23T06:21:24;4.00;99.90
51733;DHT22;39139;53.144;6.244;2024-03-23T06:23:52;4.00;99.90
51733;DHT22;39139;53.144;6.244;2024-03-23T06:26:18;4.10;99.90
51733;DHT22;39139;53.144;6.244;2024-03-23T06:28:44;4.10;99.90
51733;DHT22;39139;53.144;6.244;2024-03-23T06:31:10;4.10;99.90
51733;DHT22;39139;53.144;6.244;2024-03-23T06:33:36;4.10;99.90
51733;DHT22;39139;53.144;6.244;2024-03-23T06:36:03;4.10;99.90
51733;DHT22;39139;53.144;6.244;2024-03-23T06:38:29;4.10;99.90
51733;DHT22;39139;53.144;6.244;2024-03-23T06:40:54;4.60;99.90
51733;DHT22;39139;53.144;6.244;2024-03-23T06:43:20;4.50;99.90
51733;DHT22;39139;53.144;6.244;2024-03-23T06:45:55;4.70;99.90
51733;DHT22;39139;53.144;6.244;2024-03-23T06:48:21;4.80;99.90
51733;DHT22;39139;53.144;6.244;2024-03-23T06:50:47;4.80;99.90
51733;DHT22;39139;53.144;6.244;2024-03-23T06:53:13;5.60;99.90
51733;DHT22;39139;53.144;6.244;2024-03-23T06:55:39;4.90;99.90
51733;DHT22;39139;53.144;6.244;2024-03-23T06:58:05;4.90;99.90
51733;DHT22;39139;53.144;6.244;2024-03-23T07:00:31;5.00;99.90
51733;DHT22;39139;53.144;6.244;2024-03-23T07:02:57;5.00;99.90
51733;DHT22;39139;53.144;6.244;2024-03-23T07:05:23;5.00;99.90
51733;DHT22;39139;53.144;6.244;2024-03-23T07:07:49;4.90;99.90
51733;DHT22;39139;53.144;6.244;2024-03-23T07:10:14;5.00;99.90
51733;DHT22;39139;53.144;6.244;2024-03-23T07:12:40;4.90;99.90
51733;DHT22;39139;53.144;6.244;2024-03-23T07:15:06;4.90;99.90
51733;DHT22;39139;53.144;6.244;2024-03-23T07:17:32;4.80;99.90
51733;DHT22;39139;53.144;6.244;2024-03-23T07:19:58;4.90;99.90
51733;DHT22;39139;53.144;6.244;2024-03-23T07:22:24;5.10;99.90
51733;DHT22;39139;53.144;6.244;2024-03-23T07:24:49;5.20;99.90
51733;DHT22;39139;53.144;6.244;2024-03-23T07:27:15;5.20;99.90
51733;DHT22;39139;53.144;6.244;2024-03-23T07:29:41;5.20;99.90
51733;DHT22;39139;53.144;6.244;2024-03-23T07:32:06;5.30;99.90
51733;DHT22;39139;53.144;6.244;2024-03-23T07:34:32;5.60;99.90
51733;DHT22;39139;53.144;6.244;2024-03-23T07:36:58;5.90;99.90
51733;DHT22;39139;53.144;6.244;2024-03-23T07:39:23;6.00;99.90
51733;DHT22;39139;53.144;6.244;2024-03-23T07:41:50;6.20;99.90
51733;DHT22;39139;53.144;6.244;2024-03-23T07:44:15;6.20;99.90
51733;DHT22;39139;53.144;6.244;2024-03-23T07:46:41;6.50;99.90
51733;DHT22;39139;53.144;6.244;2024-03-23T07:49:07;7.10;99.90
51733;DHT22;39139;53.144;6.244;2024-03-23T07:51:32;7.60;99.90
51733;DHT22;39139;53.144;6.244;2024-03-23T07:53:59;7.70;99.90
51733;DHT22;39139;53.144;6.244;2024-03-23T07:56:24;7.60;99.90
51733;DHT22;39139;53.144;6.244;2024-03-23T07:58:50;7.80;99.90
51733;DHT22;39139;53.144;6.244;2024-03-23T08:01:16;7.30;99.90
51733;DHT22;39139;53.144;6.244;2024-03-23T08:03:44;7.40;99.90
51733;DHT22;39139;53.144;6.244;2024-03-23T08:06:11;7.40;99.90
51733;DHT22;39139;53.144;6.244;2024-03-23T08:08:38;7.60;99.90
51733;DHT22;39139;53.144;6.244;2024-03-23T08:11:04;8.10;99.90
51733;DHT22;39139;53.144;6.244;2024-03-23T08:13:30;8.10;99.90
51733;DHT22;39139;53.144;6.244;2024-03-23T08:16:03;8.20;99.90
51733;DHT22;39139;53.144;6.244;2024-03-23T08:18:30;8.50;99.90
51733;DHT22;39139;53.144;6.244;2024-03-23T08:21:03;9.00;99.90
51733;DHT22;39139;53.144;6.244;2024-03-23T08:23:34;9.10;99.90
51733;DHT22;39139;53.144;6.244;2024-03-23T08:26:02;9.20;99.90
51733;DHT22;39139;53.144;6.244;2024-03-23T08:28:28;8.80;99.90
51733;DHT22;39139;53.144;6.244;2024-03-23T08:30:55;8.70;99.90
51733;DHT22;39139;53.144;6.244;2024-03-23T08:33:21;8.40;99.90
51733;DHT22;39139;53.144;6.244;2024-03-23T08:35:58;8.50;99.90
51733;DHT22;39139;53.144;6.244;2024-03-23T08:38:25;8.40;99.90
51733;DHT22;39139;53.144;6.244;2024-03-23T08:41:01;8.40;99.90
51733;DHT22;39139;53.144;6.244;2024-03-23T08:43:28;8.20;99.90
51733;DHT22;39139;53.144;6.244;2024-03-23T08:46:03;8.20;99.90
51733;DHT22;39139;53.144;6.244;2024-03-23T08:48:29;8.20;99.90
51733;DHT22;39139;53.144;6.244;2024-03-23T08:51:06;8.10;99.90
51733;DHT22;39139;53.144;6.244;2024-03-23T08:53:32;8.00;99.90
51733;DHT22;39139;53.144;6.244;2024-03-23T08:55:59;8.40;99.90
51733;DHT22;39139;53.144;6.244;2024-03-23T08:58:27;9.00;99.90
51733;DHT22;39139;53.144;6.244;2024-03-23T09:00:54;9.80;99.90
51733;DHT22;39139;53.144;6.244;2024-03-23T09:03:24;10.10;99.90
51733;DHT22;39139;53.144;6.244;2024-03-23T09:05:50;10.70;99.90
51733;DHT22;39139;53.144;6.244;2024-03-23T09:08:16;11.40;99.90
51733;DHT22;39139;53.144;6.244;2024-03-23T09:10:42;11.90;99.90
51733;DHT22;39139;53.144;6.244;2024-03-23T09:13:08;11.90;99.90
51733;DHT22;39139;53.144;6.244;2024-03-23T09:15:38;11.50;99.90
51733;DHT22;39139;53.144;6.244;2024-03-23T09:18:10;10.80;99.90
51733;DHT22;39139;53.144;6.244;2024-03-23T09:20:36;10.80;99.90
51733;DHT22;39139;53.144;6.244;2024-03-23T09:23:01;10.20;99.90
51733;DHT22;39139;53.144;6.244;2024-03-23T09:25:27;9.40;99.90
51733;DHT22;39139;53.144;6.244;2024-03-23T09:27:52;8.20;99.90
51733;DHT22;39139;53.144;6.244;2024-03-23T09:30:18;7.60;99.90
51733;DHT22;39139;53.144;6.244;2024-03-23T09:32:45;7.50;99.90
51733;DHT22;39139;53.144;6.244;2024-03-23T09:35:11;7.60;99.90
51733;DHT22;39139;53.144;6.244;2024-03-23T09:37:39;8.30;99.90
51733;DHT22;39139;53.144;6.244;2024-03-23T09:40:10;9.10;99.90
51733;DHT22;39139;53.144;6.244;2024-03-23T09:42:37;9.80;99.90
51733;DHT22;39139;53.144;6.244;2024-03-23T09:45:05;10.20;99.90
51733;DHT22;39139;53.144;6.244;2024-03-23T09:47:33;10.80;99.90
51733;DHT22;39139;53.144;6.244;2024-03-23T09:49:59;11.10;99.90
51733;DHT22;39139;53.144;6.244;2024-03-23T09:52:25;11.00;99.90
51733;DHT22;39139;53.144;6.244;2024-03-23T09:54:50;11.20;99.90
51733;DHT22;39139;53.144;6.244;2024-03-23T09:57:16;11.30;99.90
51733;DHT22;39139;53.144;6.244;2024-03-23T09:59:42;11.00;99.90
51733;DHT22;39139;53.144;6.244;2024-03-23T10:02:08;10.90;99.90
51733;DHT22;39139;53.144;6.244;2024-03-23T10:04:40;10.70;99.90
51733;DHT22;39139;53.144;6.244;2024-03-23T10:07:18;11.10;99.90
51733;DHT22;39139;53.144;6.244;2024-03-23T10:09:44;11.30;99.90
51733;DHT22;39139;53.144;6.244;2024-03-23T10:12:15;11.20;99.90
51733;DHT22;39139;53.144;6.244;2024-03-23T10:14:41;11.20;99.90
51733;DHT22;39139;53.144;6.244;2024-03-23T10:17:17;10.70;99.90
51733;DHT22;39139;53.144;6.244;2024-03-23T10:19:48;10.10;99.90
51733;DHT22;39139;53.144;6.244;2024-03-23T10:22:22;9.30;99.90
51733;DHT22;39139;53.144;6.244;2024-03-23T10:24:48;9.00;99.90
51733;DHT22;39139;53.144;6.244;2024-03-23T10:27:21;8.90;99.90
51733;DHT22;39139;53.144;6.244;2024-03-23T10:29:48;8.70;99.90
51733;DHT22;39139;53.144;6.244;2024-03-23T10:32:15;8.50;99.90
51733;DHT22;39139;53.144;6.244;2024-03-23T10:34:41;8.40;99.90
51733;DHT22;39139;53.144;6.244;2024-03-23T10:37:07;8.40;99.90
51733;DHT22;39139;53.144;6.244;2024-03-23T10:39:43;8.50;99.90
51733;DHT22;39139;53.144;6.244;2024-03-23T10:42:09;8.60;99.90
51733;DHT22;39139;53.144;6.244;2024-03-23T10:44:37;8.80;99.90
51733;DHT22;39139;53.144;6.244;2024-03-23T10:47:04;9.60;99.90
51733;DHT22;39139;53.144;6.244;2024-03-23T10:49:32;9.70;99.90
51733;DHT22;39139;53.144;6.244;2024-03-23T10:52:02;9.80;99.90
51733;DHT22;39139;53.144;6.244;2024-03-23T10:54:30;9.50;99.90
51733;DHT22;39139;53.144;6.244;2024-03-23T10:57:09;8.90;99.90
51733;DHT22;39139;53.144;6.244;2024-03-23T10:59:37;7.90;99.90
51733;DHT22;39139;53.144;6.244;2024-03-23T11:02:04;7.50;99.90
51733;DHT22;39139;53.144;6.244;2024-03-23T11:04:33;7.40;99.90
51733;DHT22;39139;53.144;6.244;2024-03-23T11:06:59;7.70;99.90
51733;DHT22;39139;53.144;6.244;2024-03-23T11:09:38;8.20;99.90
51733;DHT22;39139;53.144;6.244;2024-03-23T11:14:52;9.20;99.90
51733;DHT22;39139;53.144;6.244;2024-03-23T11:17:19;9.50;99.90
51733;DHT22;39139;53.144;6.244;2024-03-23T11:19:46;9.70;99.90
51733;DHT22;39139;53.144;6.244;2024-03-23T11:22:38;10.10;99.90
51733;DHT22;39139;53.144;6.244;2024-03-23T11:25:28;10.30;99.90
51733;DHT22;39139;53.144;6.244;2024-03-23T11:28:08;10.00;99.90
51733;DHT22;39139;53.144;6.244;2024-03-23T11:30:37;10.00;99.90
51733;DHT22;39139;53.144;6.244;2024-03-23T11:33:06;10.10;99.90
51733;DHT22;39139;53.144;6.244;2024-03-23T11:35:33;10.30;99.90
51733;DHT22;39139;53.144;6.244;2024-03-23T11:38:13;10.30;99.90
51733;DHT22;39139;53.144;6.244;2024-03-23T11:40:44;9.90;99.90
51733;DHT22;39139;53.144;6.244;2024-03-23T11:43:15;9.20;99.90
51733;DHT22;39139;53.144;6.244;2024-03-23T11:45:43;8.90;99.90
51733;DHT22;39139;53.144;6.244;2024-03-23T11:48:11;8.30;99.90
51733;DHT22;39139;53.144;6.244;2024-03-23T11:50:39;8.10;99.90
51733;DHT22;39139;53.144;6.244;2024-03-23T11:53:14;7.80;99.90
51733;DHT22;39139;53.144;6.244;2024-03-23T11:55:57;7.80;99.90
51733;DHT22;39139;53.144;6.244;2024-03-23T11:58:24;7.80;99.90
51733;DHT22;39139;53.144;6.244;2024-03-23T12:00:55;7.80;99.90
51733;DHT22;39139;53.144;6.244;2024-03-23T12:03:21;7.90;99.90
51733;DHT22;39139;53.144;6.244;2024-03-23T12:05:52;7.60;99.90
51733;DHT22;39139;53.144;6.244;2024-03-23T12:11:13;7.10;99.90
51733;DHT22;39139;53.144;6.244;2024-03-23T12:13:41;7.10;99.90
51733;DHT22;39139;53.144;6.244;2024-03-23T12:16:20;7.10;99.90
51733;DHT22;39139;53.144;6.244;2024-03-23T12:18:48;7.00;99.90
51733;DHT22;39139;53.144;6.244;2024-03-23T12:21:17;7.00;99.90
51733;DHT22;39139;53.144;6.244;2024-03-23T12:23:43;6.90;99.90
51733;DHT22;39139;53.144;6.244;2024-03-23T12:26:14;7.10;99.90
51733;DHT22;39139;53.144;6.244;2024-03-23T12:28:39;7.10;99.90
51733;DHT22;39139;53.144;6.244;2024-03-23T12:31:05;7.20;99.90
51733;DHT22;39139;53.144;6.244;2024-03-23T12:33:31;7.80;99.90
51733;DHT22;39139;53.144;6.244;2024-03-23T12:35:57;7.50;99.90
51733;DHT22;39139;53.144;6.244;2024-03-23T12:38:22;7.30;99.90
51733;DHT22;39139;53.144;6.244;2024-03-23T12:40:51;7.30;99.90
51733;DHT22;39139;53.144;6.244;2024-03-23T12:43:17;7.70;99.90
51733;DHT22;39139;53.144;6.244;2024-03-23T12:45:48;7.50;99.90
51733;DHT22;39139;53.144;6.244;2024-03-23T12:48:14;7.60;99.90
51733;DHT22;39139;53.144;6.244;2024-03-23T12:50:40;7.80;99.90
51733;DHT22;39139;53.144;6.244;2024-03-23T12:53:05;8.20;99.90
51733;DHT22;39139;53.144;6.244;2024-03-23T12:55:31;8.40;99.90
51733;DHT22;39139;53.144;6.244;2024-03-23T12:57:57;8.10;99.90
51733;DHT22;39139;53.144;6.244;2024-03-23T13:00:22;7.80;99.90
51733;DHT22;39139;53.144;6.244;2024-03-23T13:02:48;7.50;99.90
51733;DHT22;39139;53.144;6.244;2024-03-23T13:05:14;7.40;99.90
51733;DHT22;39139;53.144;6.244;2024-03-23T13:07:40;7.50;99.90
51733;DHT22;39139;53.144;6.244;2024-03-23T13:10:06;7.90;99.90
51733;DHT22;39139;53.144;6.244;2024-03-23T13:12:32;8.20;99.90
51733;DHT22;39139;53.144;6.244;2024-03-23T13:15:01;8.30;99.90
51733;DHT22;39139;53.144;6.244;2024-03-23T13:17:27;8.80;99.90
51733;DHT22;39139;53.144;6.244;2024-03-23T13:19:56;9.10;99.90
51733;DHT22;39139;53.144;6.244;2024-03-23T13:22:22;9.30;99.90
51733;DHT22;39139;53.144;6.244;2024-03-23T13:24:47;9.60;99.90
51733;DHT22;39139;53.144;6.244;2024-03-23T13:27:13;9.20;99.90
51733;DHT22;39139;53.144;6.244;2024-03-23T13:29:39;8.90;99.90
51733;DHT22;39139;53.144;6.244;2024-03-23T13:32:05;8.70;99.90
51733;DHT22;39139;53.144;6.244;2024-03-23T13:34:31;8.50;99.90
51733;DHT22;39139;53.144;6.244;2024-03-23T13:36:58;8.40;99.90
51733;DHT22;39139;53.144;6.244;2024-03-23T13:39:24;8.30;99.90
51733;DHT22;39139;53.144;6.244;2024-03-23T13:41:50;8.20;99.90
51733;DHT22;39139;53.144;6.244;2024-03-23T13:44:16;8.20;99.90
51733;DHT22;39139;53.144;6.244;2024-03-23T13:46:42;8.30;99.90
51733;DHT22;39139;53.144;6.244;2024-03-23T13:49:30;8.70;99.90
51733;DHT22;39139;53.144;6.244;2024-03-23T13:51:57;8.60;99.90
51733;DHT22;39139;53.144;6.244;2024-03-23T13:54:26;8.70;99.90
51733;DHT22;39139;53.144;6.244;2024-03-23T13:56:53;8.70;99.90
51733;DHT22;39139;53.144;6.244;2024-03-23T13:59:20;8.60;99.90
51733;DHT22;39139;53.144;6.244;2024-03-23T14:01:46;8.80;99.90
51733;DHT22;39139;53.144;6.244;2024-03-23T14:04:12;8.20;99.90
51733;DHT22;39139;53.144;6.244;2024-03-23T14:06:38;8.30;99.90
51733;DHT22;39139;53.144;6.244;2024-03-23T14:09:05;8.40;99.90
51733;DHT22;39139;53.144;6.244;2024-03-23T14:11:35;8.60;99.90
51733;DHT22;39139;53.144;6.244;2024-03-23T14:14:01;8.70;99.90
51733;DHT22;39139;53.144;6.244;2024-03-23T14:16:29;8.90;99.90
51733;DHT22;39139;53.144;6.244;2024-03-23T14:18:55;9.10;99.90
51733;DHT22;39139;53.144;6.244;2024-03-23T14:21:20;9.10;99.90
51733;DHT22;39139;53.144;6.244;2024-03-23T14:23:46;9.20;99.90
51733;DHT22;39139;53.144;6.244;2024-03-23T14:26:11;9.70;99.90
51733;DHT22;39139;53.144;6.244;2024-03-23T14:28:37;9.20;99.90
51733;DHT22;39139;53.144;6.244;2024-03-23T14:31:03;9.10;99.90
51733;DHT22;39139;53.144;6.244;2024-03-23T14:33:34;9.00;99.90
51733;DHT22;39139;53.144;6.244;2024-03-23T14:36:00;8.80;99.90
51733;DHT22;39139;53.144;6.244;2024-03-23T14:38:26;8.80;99.90
51733;DHT22;39139;53.144;6.244;2024-03-23T14:40:51;8.70;99.90
51733;DHT22;39139;53.144;6.244;2024-03-23T14:43:18;8.70;99.90
51733;DHT22;39139;53.144;6.244;2024-03-23T14:46:15;8.70;99.90
51733;DHT22;39139;53.144;6.244;2024-03-23T14:48:42;8.40;99.90
51733;DHT22;39139;53.144;6.244;2024-03-23T14:51:10;8.00;99.90
51733;DHT22;39139;53.144;6.244;2024-03-23T14:53:40;7.60;99.90
51733;DHT22;39139;53.144;6.244;2024-03-23T14:56:09;7.60;99.90
51733;DHT22;39139;53.144;6.244;2024-03-23T14:58:38;7.70;99.90
51733;DHT22;39139;53.144;6.244;2024-03-23T15:01:05;7.80;99.90
51733;DHT22;39139;53.144;6.244;2024-03-23T15:03:30;7.70;99.90
51733;DHT22;39139;53.144;6.244;2024-03-23T15:05:58;7.80;99.90
51733;DHT22;39139;53.144;6.244;2024-03-23T15:08:23;7.80;99.90
51733;DHT22;39139;53.144;6.244;2024-03-23T15:10:50;7.90;99.90
51733;DHT22;39139;53.144;6.244;2024-03-23T15:13:16;8.20;99.90
51733;DHT22;39139;53.144;6.244;2024-03-23T15:15:42;8.40;99.90
51733;DHT22;39139;53.144;6.244;2024-03-23T15:18:11;8.40;99.90
51733;DHT22;39139;53.144;6.244;2024-03-23T15:20:38;8.40;99.90
51733;DHT22;39139;53.144;6.244;2024-03-23T15:23:04;8.50;99.90
51733;DHT22;39139;53.144;6.244;2024-03-23T15:25:30;8.50;99.90
51733;DHT22;39139;53.144;6.244;2024-03-23T15:27:57;8.60;99.90
51733;DHT22;39139;53.144;6.244;2024-03-23T15:30:23;8.60;99.90
51733;DHT22;39139;53.144;6.244;2024-03-23T15:32:49;8.50;99.90
51733;DHT22;39139;53.144;6.244;2024-03-23T15:35:14;8.50;99.90
51733;DHT22;39139;53.144;6.244;2024-03-23T15:37:40;8.60;99.90
51733;DHT22;39139;53.144;6.244;2024-03-23T15:40:09;8.60;99.90
51733;DHT22;39139;53.144;6.244;2024-03-23T15:42:35;8.80;99.90
51733;DHT22;39139;53.144;6.244;2024-03-23T15:45:01;8.60;99.90
51733;DHT22;39139;53.144;6.244;2024-03-23T15:47:29;8.70;99.90
51733;DHT22;39139;53.144;6.244;2024-03-23T15:49:54;8.60;99.90
51733;DHT22;39139;53.144;6.244;2024-03-23T15:52:21;8.70;99.90
51733;DHT22;39139;53.144;6.244;2024-03-23T15:54:46;8.80;99.90
51733;DHT22;39139;53.144;6.244;2024-03-23T15:57:12;8.80;99.90
51733;DHT22;39139;53.144;6.244;2024-03-23T15:59:40;8.70;99.90
51733;DHT22;39139;53.144;6.244;2024-03-23T16:02:06;8.50;99.90
51733;DHT22;39139;53.144;6.244;2024-03-23T16:04:32;8.50;99.90
51733;DHT22;39139;53.144;6.244;2024-03-23T16:06:57;8.40;99.90
51733;DHT22;39139;53.144;6.244;2024-03-23T16:09:23;8.30;99.90
51733;DHT22;39139;53.144;6.244;2024-03-23T16:11:49;8.50;99.90
51733;DHT22;39139;53.144;6.244;2024-03-23T16:14:14;8.60;99.90
51733;DHT22;39139;53.144;6.244;2024-03-23T16:16:40;8.20;99.90
51733;DHT22;39139;53.144;6.244;2024-03-23T16:19:05;8.10;99.90
51733;DHT22;39139;53.144;6.244;2024-03-23T16:21:32;8.00;99.90
51733;DHT22;39139;53.144;6.244;2024-03-23T16:23:57;8.10;99.90
51733;DHT22;39139;53.144;6.244;2024-03-23T16:26:23;8.20;99.90
51733;DHT22;39139;53.144;6.244;2024-03-23T16:28:49;8.10;99.90
51733;DHT22;39139;53.144;6.244;2024-03-23T16:31:16;8.20;99.90
51733;DHT22;39139;53.144;6.244;2024-03-23T16:33:42;7.90;99.90
51733;DHT22;39139;53.144;6.244;2024-03-23T16:36:09;7.80;99.90
51733;DHT22;39139;53.144;6.244;2024-03-23T16:38:36;7.90;99.90
51733;DHT22;39139;53.144;6.244;2024-03-23T16:43:30;7.90;99.90
51733;DHT22;39139;53.144;6.244;2024-03-23T16:46:03;8.00;99.90